createdAt,value
2022-10-28T00:01:25.203Z,101572.38
2022-10-28T00:04:00.100Z,101572.47
2022-10-28T00:06:36.742Z,101566.53
2022-10-28T00:09:08.204Z,101568.44
2022-10-28T00:11:38.541Z,101571.28
2022-10-28T00:14:07.878Z,101574.00
2022-10-28T00:16:37.733Z,101576.75
2022-10-28T00:19:10.267Z,101567.94
2022-10-28T00:21:40.765Z,101568.91
2022-10-28T00:24:11.429Z,101569.66
2022-10-28T00:26:42.434Z,101564.38
2022-10-28T00:29:19.586Z,101565.31
2022-10-28T00:31:47.660Z,101562.03
2022-10-28T00:34:19.602Z,101563.63
2022-10-28T00:36:48.415Z,101559.38
2022-10-28T00:39:23.312Z,101560.41
2022-10-28T00:42:03.669Z,101564.28
2022-10-28T00:44:40.018Z,101567.50
2022-10-28T00:47:56.768Z,101562.03
2022-10-28T00:50:51.959Z,101558.63
2022-10-28T00:53:31.624Z,101557.22
2022-10-28T00:56:03.698Z,101553.84
2022-10-28T00:58:31.943Z,101551.38
2022-10-28T01:00:59.414Z,101549.84
2022-10-28T01:03:26.745Z,101543.94
2022-10-28T01:05:54.765Z,101537.03
2022-10-28T01:08:22.071Z,101531.13
2022-10-28T01:11:23.784Z,101526.13
2022-10-28T01:14:56.334Z,101521.31
2022-10-28T01:18:11.226Z,101520.72
2022-10-28T01:21:21.289Z,101503.41
2022-10-28T01:24:24.698Z,101507.06
2022-10-28T01:27:41.009Z,101513.34
2022-10-28T01:30:16.891Z,101506.56
2022-10-28T01:33:26.989Z,101513.78
2022-10-28T01:36:11.020Z,101519.16
2022-10-28T01:39:25.947Z,101514.75
2022-10-28T01:42:39.711Z,101513.13
2022-10-28T01:45:27.924Z,101507.00
2022-10-28T01:48:20.962Z,101506.19
2022-10-28T01:51:04.536Z,101501.09
2022-10-28T01:53:41.714Z,101504.75
2022-10-28T01:56:17.573Z,101493.63
2022-10-28T01:58:48.472Z,101508.31
2022-10-28T02:01:17.720Z,101500.22
2022-10-28T02:03:48.713Z,101495.13
2022-10-28T02:06:25.286Z,101501.09
2022-10-28T02:09:30.616Z,101502.84
2022-10-28T02:12:24.707Z,101493.84
2022-10-28T02:15:21.157Z,101506.19
2022-10-28T02:18:06.049Z,101498.44
2022-10-28T02:20:50.265Z,101499.84
2022-10-28T02:24:08.505Z,101502.31
2022-10-28T02:26:41.904Z,101499.00
2022-10-28T02:29:36.235Z,101501.47
2022-10-28T02:32:13.635Z,101492.41
2022-10-28T02:34:49.377Z,101494.72
2022-10-28T02:37:27.550Z,101498.97
2022-10-28T02:40:03.610Z,101503.41
2022-10-28T02:42:57.786Z,101491.22
2022-10-28T02:45:35.180Z,101492.06
2022-10-28T02:48:38.487Z,101498.41
2022-10-28T02:51:18.977Z,101488.00
2022-10-28T02:54:47.709Z,101485.38
2022-10-28T02:57:22.153Z,101486.88
2022-10-28T03:00:00.902Z,101487.75
2022-10-28T03:02:29.051Z,101484.34
2022-10-28T03:04:56.333Z,101484.25
2022-10-28T03:07:23.782Z,101484.25
2022-10-28T03:09:51.366Z,101486.88
2022-10-28T03:12:18.623Z,101481.59
2022-10-28T03:14:46.033Z,101482.56
2022-10-28T03:17:13.420Z,101477.13
2022-10-28T03:19:40.561Z,101475.41
2022-10-28T03:22:08.044Z,101484.25
2022-10-28T03:24:35.165Z,101481.59
2022-10-28T03:27:02.356Z,101471.16
2022-10-28T03:29:29.666Z,101474.66
2022-10-28T03:31:57.030Z,101472.03
2022-10-28T03:34:24.189Z,101475.50
2022-10-28T03:36:51.392Z,101473.69
2022-10-28T03:39:18.674Z,101457.97
2022-10-28T03:41:45.951Z,101470.97
2022-10-28T03:44:13.147Z,101473.69
2022-10-28T03:46:40.318Z,101475.50
2022-10-28T03:49:07.662Z,101478.28
2022-10-28T03:51:34.838Z,101474.81
2022-10-28T03:54:02.243Z,101465.94
2022-10-28T03:56:32.204Z,101474.66
2022-10-28T03:58:59.452Z,101478.22
2022-10-28T04:01:26.786Z,101473.00
2022-10-28T04:03:54.083Z,101468.66
2022-10-28T04:06:21.297Z,101465.28
2022-10-28T04:08:48.628Z,101464.44
2022-10-28T04:11:15.881Z,101462.75
2022-10-28T04:13:43.117Z,101458.50
2022-10-28T04:16:10.265Z,101464.72
2022-10-28T04:18:37.417Z,101470.84
2022-10-28T04:21:05.331Z,101468.28
2022-10-28T04:23:32.761Z,101470.09
2022-10-28T04:25:59.913Z,101468.38
2022-10-28T04:28:27.165Z,101470.94
2022-10-28T04:30:54.422Z,101476.69
2022-10-28T04:33:21.627Z,101482.91
2022-10-28T04:35:48.913Z,101476.03
2022-10-28T04:38:16.231Z,101484.03
2022-10-28T04:40:43.590Z,101482.31
2022-10-28T04:43:11.789Z,101481.47
2022-10-28T04:45:39.457Z,101480.66
2022-10-28T04:48:06.830Z,101475.47
2022-10-28T04:50:34.221Z,101471.13
2022-10-28T04:53:11.699Z,101472.00
2022-10-28T04:55:39.093Z,101471.13
2022-10-28T04:58:06.316Z,101474.63
2022-10-28T05:00:33.566Z,101471.31
2022-10-28T05:03:03.953Z,101470.38
2022-10-28T05:05:31.368Z,101470.38
2022-10-28T05:07:58.744Z,101466.81
2022-10-28T05:10:26.309Z,101476.47
2022-10-28T05:12:53.636Z,101465.09
2022-10-28T05:15:20.870Z,101471.22
2022-10-28T05:17:48.436Z,101465.19
2022-10-28T05:20:17.754Z,101464.16
2022-10-28T05:22:53.174Z,101470.28
2022-10-28T05:25:22.704Z,101461.53
2022-10-28T05:27:50.988Z,101464.44
2022-10-28T05:30:19.146Z,101455.56
2022-10-28T05:32:48.234Z,101463.66
2022-10-28T05:35:17.927Z,101458.41
2022-10-28T05:37:45.120Z,101460.19
2022-10-28T05:40:13.189Z,101451.53
2022-10-28T05:42:44.395Z,101443.63
2022-10-28T05:45:15.499Z,101443.91
2022-10-28T05:47:45.138Z,101449.09
2022-10-28T05:50:15.500Z,101453.50
2022-10-28T05:52:55.850Z,101446.72
2022-10-28T05:55:29.476Z,101456.22
2022-10-28T05:57:57.501Z,101457.09
2022-10-28T06:00:27.259Z,101457.94
2022-10-28T06:03:12.001Z,101463.19
2022-10-28T06:05:45.871Z,101458.75
2022-10-28T06:08:14.652Z,101454.44
2022-10-28T06:10:55.406Z,101446.53
2022-10-28T06:13:23.176Z,101453.50
2022-10-28T06:15:56.072Z,101458.75
2022-10-28T06:18:23.560Z,101469.31
2022-10-28T06:20:57.364Z,101457.19
2022-10-28T06:23:27.530Z,101469.31
2022-10-28T06:26:01.632Z,101463.28
2022-10-28T06:28:30.771Z,101457.44
2022-10-28T06:31:07.754Z,101473.09
2022-10-28T06:33:35.094Z,101469.66
2022-10-28T06:36:02.808Z,101477.50
2022-10-28T06:38:30.440Z,101470.44
2022-10-28T06:40:58.162Z,101473.00
2022-10-28T06:43:25.680Z,101470.38
2022-10-28T06:45:55.463Z,101469.22
2022-10-28T06:48:24.670Z,101477.03
2022-10-28T06:50:54.387Z,101474.22
2022-10-28T06:53:21.653Z,101470.66
2022-10-28T06:55:57.631Z,101481.09
2022-10-28T06:58:26.669Z,101477.44
2022-10-28T07:00:53.982Z,101473.75
2022-10-28T07:03:21.271Z,101466.50
2022-10-28T07:05:50.384Z,101475.28
2022-10-28T07:08:17.765Z,101467.28
2022-10-28T07:10:44.963Z,101472.47
2022-10-28T07:13:12.218Z,101474.91
2022-10-28T07:15:39.362Z,101466.81
2022-10-28T07:18:06.707Z,101469.38
2022-10-28T07:20:33.904Z,101477.84
2022-10-28T07:23:02.672Z,101475.88
2022-10-28T07:25:31.727Z,101473.03
2022-10-28T07:28:00.780Z,101469.47
2022-10-28T07:30:29.277Z,101472.56
2022-10-28T07:33:01.050Z,101468.81
2022-10-28T07:35:28.995Z,101475.41
2022-10-28T07:37:56.832Z,101481.16
2022-10-28T07:40:26.438Z,101489.34
2022-10-28T07:42:53.890Z,101488.84
2022-10-28T07:45:22.076Z,101485.81
2022-10-28T07:47:49.281Z,101485.44
2022-10-28T07:50:17.114Z,101484.13
2022-10-28T07:52:45.163Z,101487.19
2022-10-28T07:55:12.840Z,101480.78
2022-10-28T07:57:40.205Z,101476.03
2022-10-28T08:00:09.204Z,101476.50
2022-10-28T08:02:39.666Z,101480.53
2022-10-28T08:05:07.429Z,101474.00
2022-10-28T08:07:37.718Z,101463.03
2022-10-28T08:10:07.028Z,101460.13
2022-10-28T08:12:34.658Z,101467.34
2022-10-28T08:15:02.778Z,101465.03
2022-10-28T08:17:30.716Z,101469.69
2022-10-28T08:19:58.109Z,101467.38
2022-10-28T08:22:25.444Z,101472.91
2022-10-28T08:24:52.728Z,101468.66
2022-10-28T08:27:19.932Z,101474.28
2022-10-28T08:29:47.156Z,101485.91
2022-10-28T08:32:14.374Z,101488.03
2022-10-28T08:34:43.617Z,101497.16
2022-10-28T08:37:11.303Z,101492.81
2022-10-28T08:39:38.697Z,101495.78
2022-10-28T08:42:29.591Z,101499.50
2022-10-28T08:45:25.415Z,101487.38
2022-10-28T08:48:20.223Z,101491.06
2022-10-28T08:51:01.265Z,101485.94
2022-10-28T08:53:47.456Z,101490.81
2022-10-28T08:56:28.714Z,101484.34
2022-10-28T08:59:02.404Z,101474.97
2022-10-28T09:01:56.519Z,101481.53
2022-10-28T09:04:45.925Z,101475.88
2022-10-28T09:07:22.797Z,101484.09
2022-10-28T09:09:53.252Z,101478.22
2022-10-28T09:12:53.646Z,101492.31
2022-10-28T09:15:57.267Z,101496.81
2022-10-28T09:18:53.557Z,101504.78
2022-10-28T09:21:47.158Z,101494.47
2022-10-28T09:24:20.531Z,101491.25
2022-10-28T09:27:22.817Z,101494.13
2022-10-28T09:30:18.406Z,101506.94
2022-10-28T09:33:43.280Z,101496.81
2022-10-28T09:36:23.990Z,101501.28
2022-10-28T09:38:58.293Z,101502.97
2022-10-28T09:41:38.814Z,101506.50
2022-10-28T09:44:49.738Z,101502.28
2022-10-28T09:47:32.748Z,101508.81
2022-10-28T09:50:07.505Z,101510.41
2022-10-28T09:53:39.392Z,101514.38
2022-10-28T09:58:46.729Z,101498.56
2022-10-28T10:01:18.031Z,101494.53
2022-10-28T10:03:50.169Z,101501.78
2022-10-28T10:06:42.790Z,101515.06
2022-10-28T10:09:25.650Z,101513.31
2022-10-28T10:12:02.756Z,101509.91
2022-10-28T10:14:42.872Z,101500.63
2022-10-28T10:17:47.273Z,101501.09
2022-10-28T10:20:21.254Z,101501.28
2022-10-28T10:22:49.887Z,101497.75
2022-10-28T10:25:20.077Z,101492.94
2022-10-28T10:28:15.774Z,101501.50
2022-10-28T10:30:54.314Z,101499.88
2022-10-28T10:33:35.988Z,101497.97
2022-10-28T10:36:17.762Z,101489.97
2022-10-28T10:39:19.227Z,101496.84
2022-10-28T10:41:46.688Z,101498.41
2022-10-28T10:44:23.049Z,101494.91
2022-10-28T10:47:05.961Z,101490.53
2022-10-28T10:49:36.218Z,101497.44
2022-10-28T10:52:17.710Z,101479.03
2022-10-28T10:55:05.236Z,101484.66
2022-10-28T10:57:33.905Z,101482.44
2022-10-28T11:00:01.629Z,101476.56
2022-10-28T11:02:39.526Z,101472.19
2022-10-28T11:05:10.747Z,101459.28
2022-10-28T11:07:48.219Z,101454.50
2022-10-28T11:10:30.827Z,101465.88
2022-10-28T11:13:23.449Z,101467.41
2022-10-28T11:16:21.419Z,101485.81
2022-10-28T11:18:53.881Z,101472.31
2022-10-28T11:22:17.140Z,101474.84
2022-10-28T11:25:36.761Z,101465.25
2022-10-28T11:28:37.822Z,101462.72
2022-10-28T11:31:48.970Z,101458.22
2022-10-28T11:35:00.887Z,101436.19
2022-10-28T11:37:35.109Z,101438.28
2022-10-28T11:40:17.654Z,101452.50
2022-10-28T11:43:38.725Z,101454.44
2022-10-28T11:46:32.192Z,101460.22
2022-10-28T11:49:46.026Z,101463.03
2022-10-28T11:52:31.926Z,101465.56
2022-10-28T11:55:49.550Z,101484.38
2022-10-28T11:58:44.939Z,101479.03
2022-10-28T12:02:32.718Z,101466.41
2022-10-28T12:05:29.718Z,101462.31
2022-10-28T12:08:21.292Z,101466.81
2022-10-28T12:11:45.663Z,101470.16
2022-10-28T12:14:30.789Z,101476.91
2022-10-28T12:18:20.534Z,101492.81
2022-10-28T12:21:25.424Z,101491.84
2022-10-28T12:23:59.230Z,101497.19
2022-10-28T12:26:48.019Z,101484.38
2022-10-28T12:29:43.032Z,101488.75
2022-10-28T12:32:21.106Z,101485.75
2022-10-28T12:35:07.853Z,101491.66
2022-10-28T12:38:00.435Z,101493.03
2022-10-28T12:40:43.978Z,101497.41
2022-10-28T12:43:18.838Z,101495.56
2022-10-28T12:45:53.431Z,101497.94
2022-10-28T12:48:55.521Z,101493.47
2022-10-28T12:51:40.292Z,101492.47
2022-10-28T12:54:18.677Z,101498.66
2022-10-28T12:57:01.902Z,101496.28
2022-10-28T12:59:44.577Z,101490.38
2022-10-28T13:02:29.005Z,101501.63
2022-10-28T13:04:58.787Z,101505.75
2022-10-28T13:07:58.705Z,101506.44
2022-10-28T13:10:57.799Z,101503.50
2022-10-28T13:13:47.823Z,101511.34
2022-10-28T13:17:07.739Z,101519.22
2022-10-28T13:20:11.942Z,101521.50
2022-10-28T13:23:19.460Z,101520.91
2022-10-28T13:26:39.191Z,101521.59
2022-10-28T13:29:20.593Z,101521.88
2022-10-28T13:31:49.125Z,101524.97
2022-10-28T13:34:29.995Z,101525.41
2022-10-28T13:37:05.842Z,101528.75
2022-10-28T13:39:47.391Z,101543.38
2022-10-28T13:42:23.378Z,101544.47
2022-10-28T13:45:01.644Z,101535.78
2022-10-28T13:47:33.806Z,101533.81
2022-10-28T13:50:07.592Z,101541.69
2022-10-28T13:52:45.892Z,101555.97
2022-10-28T13:55:40.663Z,101554.88
2022-10-28T13:58:24.420Z,101552.34
2022-10-28T14:00:53.740Z,101565.53
2022-10-28T14:03:27.614Z,101546.03
2022-10-28T14:06:00.791Z,101558.66
2022-10-28T14:08:38.284Z,101568.34
2022-10-28T14:11:23.683Z,101566.91
2022-10-28T14:13:56.581Z,101563.69
2022-10-28T14:16:43.909Z,101586.59
2022-10-28T14:19:10.977Z,101580.38
2022-10-28T14:21:44.764Z,101578.72
2022-10-28T14:24:38.254Z,101571.69
2022-10-28T14:27:08.419Z,101570.84
2022-10-28T14:30:10.676Z,101571.00
2022-10-28T14:32:56.199Z,101566.63
2022-10-28T14:35:44.792Z,101581.06
2022-10-28T14:38:57.627Z,101566.31
2022-10-28T14:41:49.384Z,101572.63
2022-10-28T14:45:05.489Z,101565.72
2022-10-28T14:48:26.443Z,101561.78
2022-10-28T14:50:56.225Z,101568.22
2022-10-28T14:53:37.009Z,101571.16
2022-10-28T14:56:12.118Z,101582.81
2022-10-28T14:58:45.032Z,101592.06
2022-10-28T15:01:18.351Z,101604.78
2022-10-28T15:04:11.095Z,101603.25
2022-10-28T15:06:46.763Z,101594.66
2022-10-28T15:09:28.091Z,101594.09
2022-10-28T15:12:18.051Z,101605.84
2022-10-28T15:14:55.855Z,101612.44
2022-10-28T15:17:36.933Z,101602.31
2022-10-28T15:20:35.590Z,101599.22
2022-10-28T15:23:15.771Z,101593.56
2022-10-28T15:25:43.223Z,101600.13
2022-10-28T15:28:14.338Z,101604.88
2022-10-28T15:30:46.279Z,101622.22
2022-10-28T15:33:38.734Z,101617.44
2022-10-28T15:36:18.332Z,101629.25
2022-10-28T15:39:17.560Z,101637.06
2022-10-28T15:41:52.477Z,101640.13
2022-10-28T15:44:40.084Z,101630.81
2022-10-28T15:47:34.764Z,101624.28
2022-10-28T15:50:16.868Z,101628.19
2022-10-28T15:52:53.558Z,101629.41
2022-10-28T15:55:47.580Z,101629.69
2022-10-28T15:58:46.573Z,101635.97
2022-10-28T16:01:35.826Z,101643.09
2022-10-28T16:04:03.227Z,101648.56
2022-10-28T16:06:39.600Z,101637.19
2022-10-28T16:09:34.435Z,101633.81
2022-10-28T16:12:21.005Z,101649.78
2022-10-28T16:14:59.480Z,101646.41
2022-10-28T16:17:35.168Z,101652.69
2022-10-28T16:20:18.281Z,101652.22
2022-10-28T16:22:47.243Z,101652.59
2022-10-28T16:25:22.342Z,101657.69
2022-10-28T16:27:51.822Z,101669.56
2022-10-28T16:30:19.262Z,101678.72
2022-10-28T16:32:51.375Z,101688.06
2022-10-28T16:35:24.167Z,101680.59
2022-10-28T16:37:55.537Z,101687.19
2022-10-28T16:40:51.190Z,101692.88
2022-10-28T16:43:25.092Z,101692.53
2022-10-28T16:45:56.484Z,101685.97
2022-10-28T16:48:28.827Z,101686.34
2022-10-28T16:51:19.960Z,101695.53
2022-10-28T16:53:49.564Z,101693.25
2022-10-28T16:56:18.332Z,101689.97
2022-10-28T16:58:46.831Z,101681.28
2022-10-28T17:01:22.042Z,101684.16
2022-10-28T17:03:49.360Z,101689.72
2022-10-28T17:06:16.569Z,101702.41
2022-10-28T17:14:03.571Z,101713.00
2022-10-28T17:16:30.881Z,101715.03
2022-10-28T17:18:58.144Z,101725.91
2022-10-28T17:21:25.712Z,101715.63
2022-10-28T17:23:52.918Z,101714.16
2022-10-28T17:26:20.144Z,101717.16
2022-10-28T17:28:52.829Z,101721.97
2022-10-28T17:31:23.912Z,101722.22
2022-10-28T17:33:55.716Z,101720.72
2022-10-28T17:36:23.491Z,101729.00
2022-10-28T17:38:50.815Z,101740.84
2022-10-28T17:41:19.266Z,101738.41
2022-10-28T17:43:46.554Z,101748.16
2022-10-28T17:46:13.840Z,101743.09
2022-10-28T17:48:43.699Z,101748.50
2022-10-28T17:51:11.523Z,101741.63
2022-10-28T17:53:38.834Z,101755.84
2022-10-28T17:56:07.650Z,101769.13
2022-10-28T17:58:34.904Z,101772.84
2022-10-28T18:01:08.614Z,101777.31
2022-10-28T18:03:38.915Z,101774.06
2022-10-28T18:06:12.800Z,101768.63
2022-10-28T18:08:43.872Z,101764.38
2022-10-28T18:11:15.180Z,101770.75
2022-10-28T18:13:47.668Z,101761.13
2022-10-28T18:16:24.181Z,101775.34
2022-10-28T18:18:53.299Z,101781.69
2022-10-28T18:21:20.880Z,101777.38
2022-10-28T18:23:53.641Z,101780.25
2022-10-28T18:26:21.911Z,101776.97
2022-10-28T18:28:49.671Z,101784.50
2022-10-28T18:31:20.111Z,101788.38
2022-10-28T18:33:47.937Z,101797.38
2022-10-28T18:36:24.654Z,101790.59
2022-10-28T18:38:52.373Z,101794.44
2022-10-28T18:41:30.141Z,101796.53
2022-10-28T18:44:04.452Z,101801.22
2022-10-28T18:46:35.473Z,101803.47
2022-10-28T18:49:04.357Z,101815.13
2022-10-28T18:51:33.948Z,101814.50
2022-10-28T18:54:01.870Z,101819.25
2022-10-28T18:56:30.653Z,101811.41
2022-10-28T18:59:02.513Z,101816.06
2022-10-28T19:01:31.647Z,101818.09
2022-10-28T19:04:03.137Z,101807.69
2022-10-28T19:06:33.743Z,101804.16
2022-10-28T19:09:04.858Z,101805.25
2022-10-28T19:11:34.252Z,101805.69
2022-10-28T19:14:07.465Z,101796.97
2022-10-28T19:16:35.649Z,101810.53
2022-10-28T19:19:05.871Z,101825.78
2022-10-28T19:21:33.959Z,101832.13
2022-10-28T19:24:02.053Z,101831.41
2022-10-28T19:26:31.869Z,101823.66
2022-10-28T19:28:59.465Z,101826.53
2022-10-28T19:31:28.430Z,101819.72
2022-10-28T19:33:58.377Z,101826.94
2022-10-28T19:36:30.420Z,101830.72
2022-10-28T19:38:58.473Z,101832.84
2022-10-28T19:41:29.819Z,101824.47
2022-10-28T19:44:00.929Z,101835.16
2022-10-28T19:46:32.726Z,101838.97
2022-10-28T19:49:06.419Z,101847.00
2022-10-28T19:51:41.877Z,101848.91
2022-10-28T19:54:15.002Z,101836.63
2022-10-28T19:56:44.513Z,101824.31
2022-10-28T19:59:11.758Z,101829.72
2022-10-28T20:01:40.452Z,101841.38
2022-10-28T20:04:10.209Z,101858.50
2022-10-28T20:06:42.081Z,101868.66
2022-10-28T20:09:09.839Z,101869.78
2022-10-28T20:11:39.869Z,101869.78
2022-10-28T20:14:12.280Z,101884.84
2022-10-28T20:16:42.791Z,101888.41
2022-10-28T20:19:11.073Z,101884.94
2022-10-28T20:21:38.880Z,101892.78
2022-10-28T20:24:09.331Z,101889.19
2022-10-28T20:26:39.705Z,101888.22
2022-10-28T20:29:08.633Z,101881.34
2022-10-28T20:31:38.980Z,101892.22
2022-10-28T20:34:07.230Z,101895.03
2022-10-28T20:36:38.403Z,101903.28
2022-10-28T20:39:16.104Z,101907.91
2022-10-28T20:41:46.648Z,101909.78
2022-10-28T20:44:14.858Z,101916.91
2022-10-28T20:46:44.961Z,101905.63
2022-10-28T20:49:13.286Z,101911.13
2022-10-28T20:51:40.932Z,101924.72
2022-10-28T20:54:08.349Z,101928.53
2022-10-28T20:56:40.256Z,101932.31
2022-10-28T20:59:07.929Z,101932.50
2022-10-28T21:01:40.229Z,101929.38
2022-10-28T21:04:10.988Z,101935.41
2022-10-28T21:06:39.370Z,101939.00
2022-10-28T21:09:07.846Z,101937.22
2022-10-28T21:11:36.302Z,101937.22
2022-10-28T21:14:03.570Z,101930.22
2022-10-28T21:16:31.513Z,101934.69
2022-10-28T21:18:59.529Z,101930.50
2022-10-28T21:21:27.784Z,101925.41
2022-10-28T21:23:55.496Z,101918.69
2022-10-28T21:26:22.841Z,101925.13
2022-10-28T21:28:53.684Z,101935.00
2022-10-28T21:31:23.600Z,101929.16
2022-10-28T21:36:23.433Z,101938.13
2022-10-28T21:38:57.404Z,101932.84
2022-10-28T21:41:25.129Z,101930.19
2022-10-28T21:43:54.306Z,101932.94
2022-10-28T21:46:23.366Z,101930.38
2022-10-28T21:48:50.749Z,101928.59
2022-10-28T21:51:18.581Z,101925.19
2022-10-28T21:53:46.401Z,101923.41
2022-10-28T21:56:19.108Z,101924.44
2022-10-28T21:58:50.392Z,101925.44
2022-10-28T22:01:24.087Z,101920.34
2022-10-28T22:03:55.036Z,101924.03
2022-10-28T22:06:22.935Z,101924.22
2022-10-28T22:08:53.718Z,101923.63
2022-10-28T22:11:24.146Z,101932.69
2022-10-28T22:14:04.188Z,101934.66
2022-10-28T22:16:35.175Z,101923.50
2022-10-28T22:19:07.613Z,101920.16
2022-10-28T22:21:40.493Z,101924.88
2022-10-28T22:24:08.732Z,101931.38
2022-10-28T22:26:36.300Z,101932.47
2022-10-28T22:29:03.723Z,101928.31
2022-10-28T22:31:32.964Z,101946.03
2022-10-28T22:34:05.392Z,101945.47
2022-10-28T22:36:32.644Z,101951.75
2022-10-28T22:38:59.872Z,101954.56
2022-10-28T22:41:31.353Z,101948.72
2022-10-28T22:44:02.159Z,101943.59
2022-10-28T22:46:33.805Z,101960.47
2022-10-28T22:49:01.018Z,101952.63
2022-10-28T22:51:28.190Z,101953.41
2022-10-28T22:53:55.552Z,101956.06
2022-10-28T22:56:25.927Z,101955.19
2022-10-28T22:59:00.977Z,101972.66
2022-10-28T23:01:29.622Z,101974.38
2022-10-28T23:03:57.206Z,101965.31
2022-10-28T23:06:27.727Z,101962.50
2022-10-28T23:08:55.819Z,101943.84
2022-10-28T23:11:23.458Z,101947.34
2022-10-28T23:13:55.398Z,101950.06
2022-10-28T23:16:24.064Z,101946.66
2022-10-28T23:18:53.201Z,101940.44
2022-10-28T23:21:26.222Z,101944.09
2022-10-28T23:24:00.048Z,101936.34
2022-10-28T23:26:29.775Z,101938.56
2022-10-28T23:28:59.906Z,101947.44
2022-10-28T23:31:28.628Z,101951.94
2022-10-28T23:33:56.743Z,101958.16
2022-10-28T23:36:24.102Z,101952.03
2022-10-28T23:38:51.797Z,101951.19
2022-10-28T23:41:20.932Z,101960.88
2022-10-28T23:43:49.384Z,101962.78
2022-10-28T23:46:17.754Z,101968.13
2022-10-28T23:48:44.969Z,101965.41
2022-10-28T23:51:12.126Z,101966.34
2022-10-28T23:53:39.356Z,101961.06
2022-10-28T23:56:07.525Z,101962.78
2022-10-28T23:58:34.793Z,101964.50
